createdAt,value
2017-07-25T00:02:20.564Z,28.36
2017-07-25T00:04:48.304Z,28.27
2017-07-25T00:07:16.273Z,28.28
2017-07-25T00:09:44.214Z,28.20
2017-07-25T00:12:12.081Z,28.15
2017-07-25T00:14:39.951Z,28.10
2017-07-25T00:17:07.969Z,28.04
2017-07-25T00:19:35.908Z,27.98
2017-07-25T00:22:03.875Z,28.02
2017-07-25T00:24:31.774Z,28.07
2017-07-25T00:26:59.480Z,28.03
2017-07-25T00:29:27.302Z,27.92
2017-07-25T00:31:55.244Z,28.04
2017-07-25T00:34:23.044Z,27.98
2017-07-25T00:36:50.876Z,27.88
2017-07-25T00:39:18.827Z,27.69
2017-07-25T00:41:46.764Z,27.50
2017-07-25T00:44:14.607Z,27.47
2017-07-25T00:46:42.374Z,27.53
2017-07-25T00:49:10.090Z,27.47
2017-07-25T00:51:37.957Z,27.52
2017-07-25T00:54:05.923Z,27.43
2017-07-25T00:56:33.740Z,27.38
2017-07-25T00:59:01.607Z,27.34
2017-07-25T01:01:29.524Z,27.27
2017-07-25T01:03:57.415Z,27.20
2017-07-25T01:06:25.157Z,27.23
2017-07-25T01:08:53.173Z,27.31
2017-07-25T01:11:20.893Z,27.45
2017-07-25T01:13:48.862Z,27.43
2017-07-25T01:16:16.726Z,27.37
2017-07-25T01:18:44.438Z,27.52
2017-07-25T01:21:12.463Z,27.59
2017-07-25T01:23:40.228Z,27.55
2017-07-25T01:26:08.197Z,27.51
2017-07-25T01:28:36.014Z,27.48
2017-07-25T01:31:03.774Z,27.44
2017-07-25T01:33:31.619Z,27.37
2017-07-25T01:35:59.365Z,27.42
2017-07-25T01:38:27.371Z,27.49
2017-07-25T01:40:55.124Z,27.45
2017-07-25T01:43:23.090Z,27.44
2017-07-25T01:45:51.133Z,27.42
2017-07-25T01:48:18.951Z,27.38
2017-07-25T01:50:46.769Z,27.36
2017-07-25T01:53:14.760Z,27.33
2017-07-25T01:55:42.644Z,27.32
2017-07-25T01:58:10.494Z,27.33
2017-07-25T02:00:38.582Z,27.27
2017-07-25T02:03:06.429Z,27.14
2017-07-25T02:05:34.296Z,27.24
2017-07-25T02:08:02.038Z,27.36
2017-07-25T02:10:29.957Z,27.48
2017-07-25T02:12:57.823Z,27.57
2017-07-25T02:15:25.794Z,27.67
2017-07-25T02:17:53.649Z,27.69
2017-07-25T02:20:21.375Z,27.65
2017-07-25T02:22:49.385Z,27.63
2017-07-25T02:25:17.057Z,27.67
2017-07-25T02:27:44.899Z,27.68
2017-07-25T02:30:12.843Z,27.74
2017-07-25T02:32:40.851Z,27.66
2017-07-25T02:35:08.700Z,27.65
2017-07-25T02:37:36.997Z,27.69
2017-07-25T02:40:04.710Z,27.59
2017-07-25T02:42:32.678Z,27.55
2017-07-25T02:45:00.497Z,27.47
2017-07-25T02:47:28.364Z,27.48
2017-07-25T02:49:56.305Z,27.54
2017-07-25T02:52:23.992Z,27.50
2017-07-25T02:54:51.838Z,27.51
2017-07-25T02:57:19.725Z,27.48
2017-07-25T02:59:47.724Z,27.41
2017-07-25T03:02:15.566Z,27.45
2017-07-25T03:04:43.326Z,27.48
2017-07-25T03:07:11.325Z,27.43
2017-07-25T03:09:39.168Z,27.41
2017-07-25T03:12:07.035Z,27.39
2017-07-25T03:14:34.998Z,27.46
2017-07-25T03:17:02.846Z,27.42
2017-07-25T03:19:30.586Z,27.45
2017-07-25T03:21:58.599Z,27.56
2017-07-25T03:24:26.570Z,27.63
2017-07-25T03:26:54.389Z,27.65
2017-07-25T03:29:22.379Z,27.71
2017-07-25T03:31:50.122Z,27.77
2017-07-25T03:34:18.142Z,27.82
2017-07-25T03:36:46.181Z,27.92
2017-07-25T03:39:14.076Z,28.11
2017-07-25T03:41:41.916Z,28.21
2017-07-25T03:44:09.917Z,28.35
2017-07-25T03:46:37.725Z,28.51
2017-07-25T03:49:05.643Z,28.65
2017-07-25T03:51:33.585Z,29.04
2017-07-25T03:54:01.484Z,29.36
2017-07-25T03:56:29.344Z,29.93
2017-07-25T03:58:57.421Z,30.98
2017-07-25T04:01:25.152Z,31.98
2017-07-25T04:03:53.144Z,31.90
2017-07-25T04:06:21.189Z,31.97
2017-07-25T04:08:49.093Z,31.88
2017-07-25T04:11:16.961Z,32.08
2017-07-25T04:13:45.013Z,32.93
2017-07-25T04:16:12.899Z,33.57
2017-07-25T04:18:40.623Z,33.00
2017-07-25T04:21:08.542Z,33.65
2017-07-25T04:23:36.411Z,34.63
2017-07-25T04:26:04.351Z,34.51
2017-07-25T04:28:32.342Z,34.53
2017-07-25T04:31:00.160Z,34.60
2017-07-25T04:33:28.173Z,35.24
2017-07-25T04:35:56.189Z,35.34
2017-07-25T04:38:24.011Z,34.87
2017-07-25T04:40:51.873Z,35.63
2017-07-25T04:43:19.698Z,36.09
2017-07-25T04:45:47.711Z,36.26
2017-07-25T04:48:15.430Z,35.29
2017-07-25T04:50:43.446Z,35.01
2017-07-25T04:53:11.297Z,35.14
2017-07-25T04:55:39.031Z,35.04
2017-07-25T04:58:07.044Z,35.82
2017-07-25T05:00:34.767Z,34.93
2017-07-25T05:03:02.687Z,35.03
2017-07-25T05:05:30.502Z,35.77
2017-07-25T05:07:58.512Z,35.66
2017-07-25T05:10:26.359Z,36.55
2017-07-25T05:12:54.249Z,36.09
2017-07-25T05:15:21.969Z,37.86
2017-07-25T05:17:49.886Z,36.87
2017-07-25T05:20:17.930Z,35.26
2017-07-25T05:22:45.797Z,35.51
2017-07-25T05:25:13.664Z,36.79
2017-07-25T05:27:41.658Z,37.63
2017-07-25T05:30:09.325Z,37.27
2017-07-25T05:32:37.141Z,35.50
2017-07-25T05:35:05.138Z,35.00
2017-07-25T05:37:32.924Z,34.73
2017-07-25T05:40:00.891Z,33.29
2017-07-25T05:42:28.760Z,32.06
2017-07-25T05:44:56.478Z,31.70
2017-07-25T05:47:24.473Z,31.03
2017-07-25T05:49:52.349Z,31.33
2017-07-25T05:52:20.154Z,33.51
2017-07-25T05:54:47.996Z,34.93
2017-07-25T05:57:15.814Z,36.76
2017-07-25T05:59:43.780Z,37.71
2017-07-25T06:02:11.669Z,38.95
2017-07-25T06:07:12.140Z,37.89
2017-07-25T06:09:39.824Z,37.29
2017-07-25T06:12:07.866Z,35.24
2017-07-25T06:14:35.635Z,35.18
2017-07-25T06:17:03.598Z,35.18
2017-07-25T06:19:31.443Z,37.85
2017-07-25T06:21:59.331Z,39.50
2017-07-25T06:24:27.329Z,41.15
2017-07-25T06:26:55.172Z,42.09
2017-07-25T06:29:23.313Z,42.09
2017-07-25T06:31:51.056Z,38.96
2017-07-25T06:34:18.924Z,37.15
2017-07-25T06:36:46.890Z,35.22
2017-07-25T06:39:14.757Z,36.50
2017-07-25T06:41:42.599Z,37.11
2017-07-25T06:44:10.448Z,36.82
2017-07-25T06:46:38.411Z,35.54
2017-07-25T06:49:06.252Z,36.92
2017-07-25T06:51:34.042Z,38.22
2017-07-25T06:54:02.009Z,36.84
2017-07-25T06:56:29.730Z,36.32
2017-07-25T06:58:57.641Z,36.72
2017-07-25T07:01:25.562Z,36.35
2017-07-25T07:03:53.331Z,37.15
2017-07-25T07:06:21.323Z,38.38
2017-07-25T07:08:49.266Z,37.82
2017-07-25T07:11:17.231Z,37.19
2017-07-25T07:13:45.127Z,36.17
2017-07-25T07:16:13.167Z,34.29
2017-07-25T07:18:40.883Z,32.87
2017-07-25T07:21:08.728Z,32.05
2017-07-25T07:23:36.719Z,31.19
2017-07-25T07:26:04.537Z,30.30
2017-07-25T07:28:32.556Z,29.70
2017-07-25T07:31:00.491Z,28.54
2017-07-25T07:33:28.487Z,27.59
2017-07-25T07:35:56.361Z,27.05
2017-07-25T07:38:24.318Z,27.01
2017-07-25T07:40:52.298Z,27.06
2017-07-25T07:43:20.033Z,27.31
2017-07-25T07:45:47.828Z,27.62
2017-07-25T07:48:15.501Z,28.01
2017-07-25T07:50:43.533Z,28.92
2017-07-25T07:53:11.429Z,30.33
2017-07-25T07:55:39.296Z,31.26
2017-07-25T07:58:07.009Z,31.48
2017-07-25T08:00:35.030Z,31.78
2017-07-25T08:03:02.870Z,32.12
2017-07-25T08:05:30.764Z,32.31
2017-07-25T08:07:58.730Z,32.28
2017-07-25T08:10:26.565Z,32.73
2017-07-25T08:12:54.549Z,34.49
2017-07-25T08:15:22.579Z,35.47
2017-07-25T08:17:50.186Z,35.45
2017-07-25T08:20:17.836Z,36.19
2017-07-25T08:22:45.528Z,37.46
2017-07-25T08:25:13.148Z,38.22
2017-07-25T08:27:40.774Z,37.85
2017-07-25T08:30:08.447Z,36.99
2017-07-25T08:32:36.116Z,36.24
2017-07-25T08:35:03.748Z,34.73
2017-07-25T08:37:31.786Z,33.74
2017-07-25T08:39:59.581Z,33.09
2017-07-25T08:42:27.395Z,33.81
2017-07-25T08:44:56.210Z,35.92
2017-07-25T08:47:23.956Z,35.59
2017-07-25T08:49:51.930Z,36.48
2017-07-25T08:52:19.668Z,36.84
2017-07-25T08:54:47.656Z,36.78
2017-07-25T08:57:15.557Z,36.53
2017-07-25T08:59:43.630Z,35.90
2017-07-25T09:02:11.683Z,34.13
2017-07-25T09:04:39.549Z,33.34
2017-07-25T09:07:07.614Z,33.01
2017-07-25T09:09:35.505Z,32.97
2017-07-25T09:12:03.228Z,32.50
2017-07-25T09:14:31.033Z,32.77
2017-07-25T09:17:01.562Z,32.67
2017-07-25T09:19:34.379Z,32.96
2017-07-25T09:22:03.973Z,33.00
2017-07-25T09:24:31.717Z,33.06
2017-07-25T09:26:59.574Z,33.54
2017-07-25T09:29:27.422Z,33.29
2017-07-25T09:31:55.160Z,33.78
2017-07-25T09:34:23.390Z,34.38
2017-07-25T09:36:51.112Z,36.30
2017-07-25T09:39:18.769Z,38.07
2017-07-25T09:41:46.415Z,37.86
2017-07-25T09:44:14.027Z,36.90
2017-07-25T09:46:41.700Z,36.76
2017-07-25T09:49:09.774Z,36.87
2017-07-25T09:51:37.628Z,38.03
2017-07-25T09:54:05.267Z,37.83
2017-07-25T09:56:32.908Z,37.59
2017-07-25T09:59:00.512Z,37.51
2017-07-25T10:01:28.122Z,37.56
2017-07-25T10:03:55.773Z,37.46
2017-07-25T10:06:23.454Z,37.26
2017-07-25T10:08:51.140Z,36.82
2017-07-25T10:11:18.829Z,36.09
2017-07-25T10:13:46.443Z,35.80
2017-07-25T10:16:14.088Z,34.64
2017-07-25T10:18:42.070Z,34.40
2017-07-25T10:21:09.913Z,34.50
2017-07-25T10:23:37.481Z,33.98
2017-07-25T10:26:05.130Z,34.15
2017-07-25T10:28:32.749Z,34.06
2017-07-25T10:31:00.328Z,34.51
2017-07-25T10:33:28.000Z,35.93
2017-07-25T10:35:55.899Z,37.38
2017-07-25T10:38:23.541Z,38.97
2017-07-25T10:40:51.163Z,40.34
2017-07-25T10:43:18.859Z,39.65
2017-07-25T10:45:46.470Z,39.89
2017-07-25T10:48:14.063Z,40.73
2017-07-25T10:50:41.734Z,40.29
2017-07-25T10:53:09.295Z,40.30
2017-07-25T10:55:36.849Z,41.13
2017-07-25T10:58:04.458Z,42.35
2017-07-25T11:00:32.010Z,41.88
2017-07-25T11:02:59.649Z,41.33
2017-07-25T11:05:27.336Z,40.64
2017-07-25T11:07:54.971Z,40.40
2017-07-25T11:10:22.586Z,39.66
2017-07-25T11:12:50.272Z,38.48
2017-07-25T11:15:17.856Z,35.10
2017-07-25T11:17:45.434Z,33.14
2017-07-25T11:20:13.079Z,30.88
2017-07-25T11:22:40.661Z,30.15
2017-07-25T11:25:08.246Z,29.40
2017-07-25T11:27:35.860Z,28.85
2017-07-25T11:30:03.427Z,28.22
2017-07-25T11:32:30.977Z,27.27
2017-07-25T11:34:58.621Z,27.03
2017-07-25T11:37:26.195Z,26.53
2017-07-25T11:39:53.757Z,26.46
2017-07-25T11:42:21.403Z,26.08
2017-07-25T11:44:48.953Z,26.02
2017-07-25T11:47:16.601Z,26.31
2017-07-25T11:49:44.181Z,26.83
2017-07-25T11:52:11.792Z,26.80
2017-07-25T11:54:39.451Z,26.58
2017-07-25T11:57:07.006Z,26.77
2017-07-25T11:59:34.610Z,27.35
2017-07-25T12:02:02.219Z,27.47
2017-07-25T12:04:29.790Z,28.01
2017-07-25T12:06:57.361Z,27.86
2017-07-25T12:09:24.980Z,28.95
2017-07-25T12:11:52.532Z,29.75
2017-07-25T12:14:20.103Z,29.40
2017-07-25T12:16:47.733Z,28.67
2017-07-25T12:19:15.299Z,28.99
2017-07-25T12:21:45.848Z,28.51
2017-07-25T12:24:13.456Z,28.42
2017-07-25T12:26:41.010Z,29.21
2017-07-25T12:29:08.580Z,29.76
2017-07-25T12:31:36.224Z,29.94
2017-07-25T12:34:03.990Z,29.79
2017-07-25T12:36:31.607Z,30.05
2017-07-25T12:38:59.238Z,31.21
2017-07-25T12:41:26.793Z,31.40
2017-07-25T12:43:54.424Z,30.85
2017-07-25T12:46:22.056Z,30.18
2017-07-25T12:48:49.618Z,29.58
2017-07-25T12:51:17.281Z,29.06
2017-07-25T12:53:45.174Z,29.42
2017-07-25T12:56:12.718Z,29.72
2017-07-25T12:58:40.268Z,29.61
2017-07-25T13:01:19.752Z,28.99
2017-07-25T13:03:47.385Z,28.42
2017-07-25T13:06:14.992Z,28.16
2017-07-25T13:08:42.886Z,28.36
2017-07-25T13:11:10.753Z,28.32
2017-07-25T13:13:38.504Z,28.13
2017-07-25T13:16:06.185Z,28.04
2017-07-25T13:18:33.866Z,28.01
2017-07-25T13:21:01.474Z,27.64
2017-07-25T13:23:29.223Z,27.51
2017-07-25T13:25:56.840Z,27.45
2017-07-25T13:28:24.475Z,27.42
2017-07-25T13:30:52.160Z,27.07
2017-07-25T13:33:20.052Z,26.99
2017-07-25T13:35:47.668Z,27.27
2017-07-25T13:38:15.545Z,27.09
2017-07-25T13:40:43.217Z,26.80
2017-07-25T13:43:10.965Z,26.84
2017-07-25T13:45:38.769Z,26.88
2017-07-25T13:48:07.079Z,27.12
2017-07-25T13:50:34.908Z,27.13
2017-07-25T13:53:03.338Z,27.13
2017-07-25T13:55:31.039Z,27.34
2017-07-25T13:57:58.721Z,27.50
2017-07-25T14:00:26.486Z,27.21
2017-07-25T14:02:54.102Z,26.82
2017-07-25T14:05:21.709Z,26.61
2017-07-25T14:07:49.473Z,26.50
2017-07-25T14:10:17.132Z,26.46
2017-07-25T14:12:44.746Z,26.50
2017-07-25T14:15:12.427Z,26.50
2017-07-25T14:17:40.055Z,26.58
2017-07-25T14:20:07.683Z,26.57
2017-07-25T14:22:35.350Z,26.53
2017-07-25T14:25:02.964Z,26.54
2017-07-25T14:27:30.585Z,26.50
2017-07-25T14:29:58.273Z,26.44
2017-07-25T14:32:25.900Z,26.41
2017-07-25T14:34:54.506Z,26.55
2017-07-25T14:37:22.169Z,26.71
2017-07-25T14:39:49.776Z,26.70
2017-07-25T14:42:17.376Z,26.52
2017-07-25T14:44:45.040Z,26.38
2017-07-25T14:47:12.638Z,26.31
2017-07-25T14:49:40.270Z,26.26
2017-07-25T14:52:08.030Z,26.14
2017-07-25T14:54:35.639Z,25.97
2017-07-25T14:57:03.246Z,25.65
2017-07-25T14:59:31.060Z,25.09
2017-07-25T15:01:58.769Z,24.36
2017-07-25T15:04:26.586Z,23.83
2017-07-25T15:06:54.306Z,23.40
2017-07-25T15:09:22.222Z,22.86
2017-07-25T15:11:50.163Z,22.57
2017-07-25T15:14:18.053Z,22.21
2017-07-25T15:16:46.021Z,22.08
2017-07-25T15:19:14.062Z,22.09
2017-07-25T15:21:41.720Z,22.08
2017-07-25T15:24:09.454Z,21.99
2017-07-25T15:26:37.052Z,21.92
2017-07-25T15:29:04.700Z,21.91
2017-07-25T15:31:32.309Z,21.70
2017-07-25T15:34:00.143Z,21.67
2017-07-25T15:36:27.893Z,21.77
2017-07-25T15:38:55.751Z,21.64
2017-07-25T15:41:23.673Z,21.50
2017-07-25T15:43:51.328Z,21.38
2017-07-25T15:46:18.936Z,21.30
2017-07-25T15:48:46.525Z,21.08
2017-07-25T15:51:14.176Z,20.64
2017-07-25T15:53:41.798Z,20.47
2017-07-25T15:56:09.409Z,20.31
2017-07-25T15:58:37.108Z,20.22
2017-07-25T16:01:04.712Z,20.17
2017-07-25T16:03:32.311Z,20.19
2017-07-25T16:05:59.984Z,20.42
2017-07-25T16:08:27.591Z,20.53
2017-07-25T16:10:55.218Z,20.57
2017-07-25T16:13:22.877Z,20.66
2017-07-25T16:15:50.635Z,20.66
2017-07-25T16:18:18.291Z,20.52
2017-07-25T16:20:45.957Z,20.50
2017-07-25T16:23:13.586Z,20.47
2017-07-25T16:25:41.213Z,20.56
2017-07-25T16:28:08.882Z,20.59
2017-07-25T16:30:36.498Z,20.62
2017-07-25T16:33:04.117Z,20.48
2017-07-25T16:35:32.113Z,20.35
2017-07-25T16:37:59.710Z,20.41
2017-07-25T16:40:27.314Z,20.40
2017-07-25T16:42:54.963Z,20.30
2017-07-25T16:45:22.578Z,20.20
2017-07-25T16:47:50.181Z,20.12
2017-07-25T16:50:17.835Z,20.11
2017-07-25T16:52:45.449Z,20.13
2017-07-25T16:55:13.049Z,20.24
2017-07-25T16:57:40.724Z,20.72
2017-07-25T17:00:08.324Z,20.64
2017-07-25T17:02:35.931Z,20.75
2017-07-25T17:05:03.594Z,20.84
2017-07-25T17:07:31.206Z,20.80
2017-07-25T17:09:58.820Z,20.70
2017-07-25T17:12:26.476Z,20.47
2017-07-25T17:14:54.065Z,20.25
2017-07-25T17:17:21.687Z,20.24
2017-07-25T17:19:49.368Z,20.28
2017-07-25T17:22:17.010Z,20.37
2017-07-25T17:24:44.621Z,20.42
2017-07-25T17:27:12.273Z,20.63
2017-07-25T17:29:39.877Z,20.65
2017-07-25T17:32:07.481Z,20.62
2017-07-25T17:34:35.125Z,20.78
2017-07-25T17:37:02.731Z,20.80
2017-07-25T17:39:30.333Z,20.71
2017-07-25T17:41:57.997Z,20.59
2017-07-25T17:44:25.619Z,20.57
2017-07-25T17:46:53.205Z,20.51
2017-07-25T17:49:20.846Z,20.45
2017-07-25T17:51:48.488Z,20.43
2017-07-25T17:54:16.089Z,20.39
2017-07-25T17:56:43.741Z,20.45
2017-07-25T17:59:11.345Z,20.45
2017-07-25T18:01:38.954Z,20.44
2017-07-25T18:04:06.605Z,20.40
2017-07-25T18:06:34.219Z,20.34
2017-07-25T18:09:01.829Z,20.32
2017-07-25T18:11:29.500Z,20.25
2017-07-25T18:13:57.099Z,20.15
2017-07-25T18:16:24.710Z,20.32
2017-07-25T18:18:52.374Z,20.34
2017-07-25T18:21:20.028Z,20.20
2017-07-25T18:23:47.622Z,20.19
2017-07-25T18:26:15.270Z,20.13
2017-07-25T18:28:42.880Z,20.07
2017-07-25T18:31:10.472Z,20.08
2017-07-25T18:33:38.113Z,20.12
2017-07-25T18:36:05.733Z,20.17
2017-07-25T18:38:33.524Z,20.16
2017-07-25T18:41:01.188Z,20.09
2017-07-25T18:43:28.900Z,20.04
2017-07-25T18:45:56.702Z,19.96
2017-07-25T18:48:24.515Z,20.05
2017-07-25T18:50:53.200Z,20.18
2017-07-25T18:53:21.298Z,20.09
2017-07-25T18:55:49.857Z,20.07
2017-07-25T18:58:17.766Z,20.23
2017-07-25T19:00:46.174Z,20.23
2017-07-25T19:03:15.090Z,20.12
2017-07-25T19:05:42.694Z,20.07
2017-07-25T19:08:10.304Z,20.03
2017-07-25T19:10:37.974Z,20.04
2017-07-25T19:13:05.577Z,20.11
2017-07-25T19:15:33.182Z,20.17
2017-07-25T19:18:00.889Z,20.25
2017-07-25T19:20:28.490Z,20.32
2017-07-25T19:22:57.139Z,20.47
2017-07-25T19:25:24.929Z,20.43
2017-07-25T19:27:52.712Z,20.28
2017-07-25T19:30:20.364Z,20.09
2017-07-25T19:32:48.096Z,19.93
2017-07-25T19:35:15.723Z,19.87
2017-07-25T19:37:43.639Z,19.84
2017-07-25T19:40:11.264Z,19.93
2017-07-25T19:42:38.889Z,19.97
2017-07-25T19:45:06.531Z,20.04
2017-07-25T19:47:34.147Z,20.09
2017-07-25T19:50:01.826Z,20.14
2017-07-25T19:52:29.500Z,20.40
2017-07-25T19:54:57.094Z,20.28
2017-07-25T19:57:24.765Z,20.25
2017-07-25T19:59:52.372Z,20.29
2017-07-25T20:02:19.988Z,20.40
2017-07-25T20:04:47.643Z,20.48
2017-07-25T20:07:15.249Z,20.41
2017-07-25T20:09:42.915Z,20.24
2017-07-25T20:12:10.591Z,20.15
2017-07-25T20:14:38.206Z,20.02
2017-07-25T20:17:05.794Z,19.91
2017-07-25T20:19:33.437Z,19.92
2017-07-25T20:22:01.036Z,19.88
2017-07-25T20:24:28.668Z,19.95
2017-07-25T20:26:56.340Z,20.10
2017-07-25T20:29:23.933Z,19.99
2017-07-25T20:31:51.541Z,19.91
2017-07-25T20:34:19.199Z,20.09
2017-07-25T20:36:48.275Z,20.09
2017-07-25T20:39:15.957Z,20.08
2017-07-25T20:41:43.619Z,19.99
2017-07-25T20:44:11.226Z,20.06
2017-07-25T20:46:38.864Z,20.33
2017-07-25T20:49:06.578Z,20.06
2017-07-25T20:51:34.264Z,20.10
2017-07-25T20:54:01.883Z,20.10
2017-07-25T20:56:29.514Z,20.02
2017-07-25T20:58:57.236Z,20.18
2017-07-25T21:01:24.892Z,20.11
2017-07-25T21:03:52.504Z,20.08
2017-07-25T21:06:20.175Z,19.90
2017-07-25T21:08:47.796Z,19.79
2017-07-25T21:11:15.521Z,19.54
2017-07-25T21:13:43.186Z,19.48
2017-07-25T21:16:10.804Z,19.51
2017-07-25T21:18:38.424Z,19.73
2017-07-25T21:21:06.063Z,19.73
2017-07-25T21:23:33.657Z,19.54
2017-07-25T21:26:01.363Z,19.56
2017-07-25T21:28:28.969Z,19.66
2017-07-25T21:30:56.562Z,19.60
2017-07-25T21:33:24.247Z,19.61
2017-07-25T21:35:51.854Z,19.90
2017-07-25T21:38:19.454Z,20.10
2017-07-25T21:40:47.114Z,20.18
2017-07-25T21:43:14.733Z,20.17
2017-07-25T21:45:42.340Z,20.02
2017-07-25T21:48:10.004Z,20.07
2017-07-25T21:50:37.616Z,19.89
2017-07-25T21:53:05.244Z,19.68
2017-07-25T21:55:32.913Z,19.61
2017-07-25T21:58:00.525Z,19.56
2017-07-25T22:00:28.166Z,19.52
2017-07-25T22:03:07.537Z,19.46
2017-07-25T22:05:35.152Z,19.31
2017-07-25T22:08:02.808Z,19.21
2017-07-25T22:10:30.502Z,19.41
2017-07-25T22:12:58.125Z,19.40
2017-07-25T22:15:25.735Z,19.16
2017-07-25T22:17:53.433Z,19.11
2017-07-25T22:20:21.060Z,19.04
2017-07-25T22:22:48.673Z,19.08
2017-07-25T22:25:16.332Z,19.40
2017-07-25T22:27:43.951Z,19.43
2017-07-25T22:30:11.553Z,19.44
2017-07-25T22:32:39.244Z,19.39
2017-07-25T22:35:06.858Z,19.25
2017-07-25T22:37:34.493Z,19.09
2017-07-25T22:40:02.350Z,19.25
2017-07-25T22:42:29.969Z,19.21
2017-07-25T22:44:57.576Z,19.30
2017-07-25T22:47:25.655Z,19.48
2017-07-25T22:49:53.280Z,19.53
2017-07-25T22:52:20.891Z,19.27
2017-07-25T22:54:48.584Z,19.15
2017-07-25T22:57:16.208Z,19.01
2017-07-25T22:59:43.825Z,18.92
2017-07-25T23:02:11.509Z,19.09
2017-07-25T23:04:39.110Z,18.98
2017-07-25T23:07:06.745Z,18.90
2017-07-25T23:09:34.427Z,18.80
2017-07-25T23:12:02.050Z,18.69
2017-07-25T23:14:29.671Z,18.57
2017-07-25T23:16:57.332Z,18.53
2017-07-25T23:19:24.954Z,18.74
2017-07-25T23:21:52.570Z,18.74
2017-07-25T23:24:20.291Z,18.60
2017-07-25T23:26:47.908Z,18.58
2017-07-25T23:29:15.529Z,18.65
2017-07-25T23:31:43.208Z,18.54
2017-07-25T23:34:10.850Z,18.51
2017-07-25T23:36:38.464Z,18.56
2017-07-25T23:39:06.153Z,18.51
2017-07-25T23:41:33.786Z,18.60
2017-07-25T23:44:01.408Z,18.50
2017-07-25T23:46:29.084Z,18.44
2017-07-25T23:48:56.691Z,18.49
2017-07-25T23:51:24.317Z,18.33
2017-07-25T23:53:52.003Z,18.28
2017-07-25T23:56:19.634Z,18.21
2017-07-25T23:58:47.273Z,18.24
